Terminal Aerodrome Forecast
Issued by NWS Cleveland, OH

Home | Current Version | Previous Version | Text Only | Print | Product List | Glossary On
Versions: 1 2 3 4 5 6 7 8 9 10 11 12 13 14 15 16 17 18 19 20 21
000
FTUS41 KCLE 161100
TAFCAK
TAF
KCAK 161124Z 1612/1712 32003KT 4SM BR BKN003 OVC050
      TEMPO 1612/1614 2SM BR SCT003 OVC050
     FM161400 35005KT P6SM BKN012 OVC025
     FM161800 36006KT P6SM SCT012 BKN025
     FM162000 35008KT P6SM SCT035
     FM170100 31004KT P6SM SKC
     FM170900 05002KT 3SM BR SCT008=

USA.gov is the U.S. government's official web portal to all federal, state and local government web resources and services.